PWSweather.com
Personal Weather Stations
Station Observations
VAGALAX1
Taylorwoods , Galax, VA 24333

Taylorwoods Galax, VA 24333

Lat: 36.679, Lon: -80.888

Elevation: 2650

Station Type: Davis Vantage Pro 2

Latest ConditionsUpdated 3:55:00 AM EDT Sunday, Apr 23, 2017
Currently Today's Max Today's Min Today's Average
Temperature 47.9°F8.8°C 53.9°F12.2°C 47.9°F8.8°C 50.5°F10.3°C
Dew Point 46.0°F7.8°C 51.6°F10.9°C 46.0°F7.8°C 48.5°F9.2°C
Winds Calm Calm 4.6 mph E7.4 kmh E - 0.3 mph 0.5 kmh
Wind Gusts -- 6.9 mph11.1 kmh - -
Humidity 93% 93% 92% 93%
Pressure 29.99 in1015.6 mb 29.99 in1015.6 mb 29.92 in1013.2 mb -
Precipitation - 0.24 in6.1 mm - -
Hour Temp Dew Point Humidity Winds Wind Gusts Pressure Precip Precip Rate Daily Precip Total
03:55 AM 47.9°F8.8°C 46.0°F7.8°C 93% Calm Calm -- 29.99 in1015.6 mb - 0.00 in0.0 mm 0.24 in6.1 mm
03:50 AM 48.1°F8.9°C 46.2°F7.9°C 93% Calm Calm -- 29.98 in1015.2 mb - 0.00 in0.0 mm 0.24 in6.1 mm
03:45 AM 48.2°F9.0°C 46.3°F7.9°C 93% Calm Calm -- 29.98 in1015.2 mb - 0.00 in0.0 mm 0.24 in6.1 mm
03:40 AM 48.3°F9.1°C 46.4°F8.0°C 93% Calm Calm -- 29.98 in1015.2 mb - 0.00 in0.0 mm 0.24 in6.1 mm
03:35 AM 48.5°F9.2°C 46.5°F8.1°C 93% Calm Calm -- 29.99 in1015.6 mb - 0.00 in0.0 mm 0.24 in6.1 mm
03:30 AM 48.6°F9.2°C 46.6°F8.1°C 93% Calm Calm -- 29.98 in1015.2 mb - 0.00 in0.0 mm 0.24 in6.1 mm
03:25 AM 48.6°F9.2°C 46.7°F8.2°C 93% Calm Calm -- 29.98 in1015.2 mb - 0.00 in0.0 mm 0.24 in6.1 mm
03:20 AM 48.8°F9.3°C 46.9°F8.3°C 93% Calm Calm -- 29.99 in1015.6 mb - 0.00 in0.0 mm 0.24 in6.1 mm
03:15 AM 48.9°F9.4°C 47.0°F8.3°C 93% Calm Calm -- 29.98 in1015.2 mb - 0.00 in0.0 mm 0.24 in6.1 mm
03:10 AM 49.2°F9.6°C 47.3°F8.5°C 93% Calm Calm -- 29.98 in1015.2 mb - 0.11 in2.8 mm 0.24 in6.1 mm
03:00 AM 48.9°F9.4°C 47.0°F8.3°C 93% Calm Calm -- 29.98 in1015.2 mb - 0.00 in0.0 mm 0.13 in3.3 mm
02:55 AM 48.9°F9.4°C 47.0°F8.3°C 93% Calm Calm -- 29.98 in1015.2 mb - 0.00 in0.0 mm 0.13 in3.3 mm
02:50 AM 48.9°F9.4°C 46.7°F8.2°C 92% Calm Calm -- 29.97 in1014.9 mb - 0.00 in0.0 mm 0.13 in3.3 mm
02:45 AM 48.9°F9.4°C 46.7°F8.2°C 92% Calm Calm -- 29.97 in1014.9 mb - 0.00 in0.0 mm 0.13 in3.3 mm
02:40 AM 49.6°F9.8°C 47.7°F8.7°C 93% Calm Calm -- 29.97 in1014.9 mb - 0.00 in0.0 mm 0.13 in3.3 mm
02:35 AM 49.7°F9.8°C 47.8°F8.8°C 93% Calm Calm -- 29.97 in1014.9 mb - 0.00 in0.0 mm 0.13 in3.3 mm
02:30 AM 49.8°F9.9°C 47.6°F8.7°C 92% Calm Calm -- 29.96 in1014.6 mb - 0.00 in0.0 mm 0.13 in3.3 mm
02:25 AM 49.9°F9.9°C 48.0°F8.9°C 93% Calm Calm -- 29.96 in1014.6 mb - 0.00 in0.0 mm 0.13 in3.3 mm
02:20 AM 49.9°F9.9°C 48.0°F8.9°C 93% Calm Calm -- 29.96 in1014.6 mb - 0.00 in0.0 mm 0.13 in3.3 mm
02:15 AM 50.0°F10.0°C 48.1°F8.9°C 93% 1.2 mph ENE1.9 kmh ENE 1.2 mph1.9 kmh 29.95 in1014.2 mb - 0.00 in0.0 mm 0.13 in3.3 mm
02:10 AM 50.0°F10.0°C 48.1°F8.9°C 93% Calm Calm -- 29.95 in1014.2 mb - 0.09 in2.3 mm 0.13 in3.3 mm
02:00 AM 50.3°F10.2°C 48.1°F8.9°C 92% 1.2 mph NNE1.9 kmh NNE 3.5 mph5.6 kmh 29.94 in1013.9 mb - 0.00 in0.0 mm 0.04 in1.0 mm
01:55 AM 50.5°F10.3°C 48.6°F9.2°C 93% Calm Calm 1.2 mph1.9 kmh 29.93 in1013.5 mb - 0.00 in0.0 mm 0.04 in1.0 mm
01:50 AM 50.6°F10.3°C 48.7°F9.3°C 93% Calm Calm -- 29.93 in1013.5 mb - 0.00 in0.0 mm 0.04 in1.0 mm
01:45 AM 50.7°F10.4°C 48.8°F9.3°C 93% Calm Calm 3.5 mph5.6 kmh 29.92 in1013.2 mb - 0.00 in0.0 mm 0.04 in1.0 mm
01:40 AM 51.0°F10.6°C 48.8°F9.3°C 92% 3.5 mph E5.6 kmh E 4.6 mph7.4 kmh 29.93 in1013.5 mb - 0.00 in0.0 mm 0.04 in1.0 mm
01:35 AM 51.1°F10.6°C 48.8°F9.3°C 92% 2.3 mph E3.7 kmh E 3.5 mph5.6 kmh 29.93 in1013.5 mb - 0.00 in0.0 mm 0.04 in1.0 mm
01:30 AM 51.1°F10.6°C 49.1°F9.5°C 93% 4.6 mph E7.4 kmh E 6.9 mph11.1 kmh 29.95 in1014.2 mb - 0.00 in0.0 mm 0.04 in1.0 mm
01:25 AM 51.1°F10.6°C 48.9°F9.4°C 92% Calm Calm -- 29.97 in1014.9 mb - 0.00 in0.0 mm 0.04 in1.0 mm
01:20 AM 51.1°F10.6°C 48.9°F9.4°C 92% Calm Calm -- 29.97 in1014.9 mb - 0.00 in0.0 mm 0.04 in1.0 mm
01:15 AM 51.1°F10.6°C 49.2°F9.6°C 93% Calm Calm -- 29.98 in1015.2 mb - 0.00 in0.0 mm 0.04 in1.0 mm
01:10 AM 51.1°F10.6°C 48.9°F9.4°C 92% Calm Calm -- 29.98 in1015.2 mb - 0.00 in0.0 mm 0.04 in1.0 mm
01:00 AM 51.1°F10.6°C 48.9°F9.4°C 92% Calm Calm 2.3 mph3.7 kmh 29.98 in1015.2 mb - 0.00 in0.0 mm 0.04 in1.0 mm
12:55 AM 51.1°F10.6°C 48.8°F9.3°C 92% Calm Calm -- 29.98 in1015.2 mb - 0.00 in0.0 mm 0.04 in1.0 mm
12:50 AM 51.1°F10.6°C 48.8°F9.3°C 92% Calm Calm -- 29.97 in1014.9 mb - 0.00 in0.0 mm 0.04 in1.0 mm
12:45 AM 51.1°F10.6°C 49.2°F9.6°C 93% Calm Calm -- 29.97 in1014.9 mb - 0.00 in0.0 mm 0.04 in1.0 mm
12:40 AM 53.9°F12.2°C 51.6°F10.9°C 92% Calm Calm -- 29.97 in1014.9 mb - 0.00 in0.0 mm 0.04 in1.0 mm
12:35 AM 53.9°F12.2°C 51.6°F10.9°C 92% Calm Calm 3.5 mph5.6 kmh 29.97 in1014.9 mb - 0.00 in0.0 mm 0.04 in1.0 mm
12:30 AM 53.9°F12.2°C 51.6°F10.9°C 92% Calm Calm -- 29.96 in1014.6 mb - 0.00 in0.0 mm 0.04 in1.0 mm
12:25 AM 53.9°F12.2°C 51.6°F10.9°C 92% Calm Calm -- 29.97 in1014.9 mb - 0.00 in0.0 mm 0.04 in1.0 mm
12:20 AM 53.0°F11.7°C 50.7°F10.4°C 92% Calm Calm -- 29.97 in1014.9 mb - 0.00 in0.0 mm 0.04 in1.0 mm
12:15 AM 53.8°F12.1°C 51.5°F10.8°C 92% Calm Calm -- 29.98 in1015.2 mb - 0.00 in0.0 mm 0.04 in1.0 mm
12:10 AM 53.8°F12.1°C 51.5°F10.8°C 92% Calm Calm -- 29.98 in1015.2 mb - 0.04 in1.0 mm 0.04 in1.0 mm
12:00 AM 53.1°F11.7°C 50.8°F10.4°C 92% Calm Calm -- 29.98 in1015.2 mb - 0.00 in0.0 mm 0.00 in0.0 mm